Time;durP1;ratioP1;P1;durP2;ratioP2;P2;SDS_P1;SDS_P2;PMS_P1;PMS_P2;Temp;Humidity;BMP_temperature;BMP_pressure;BME280_temperature;BME280_humidity;BME280_pressure;Samples;Min_cycle;Max_cycle;Signal;HPM_P1;HPM_P2
2021/11/12 00:04:25;;;;;;;90.47;31.67;;;;;;;;;;5014867;28;20110;-73
2021/11/12 00:14:50;;;;;;;92.65;33.58;;;;;;;;;;5043795;28;20037;-72
2021/11/12 00:17:17;;;;;;;84.90;33.88;;;;;;;;;;5042758;28;20021;-72
2021/11/12 00:19:44;;;;;;;74.15;29.92;;;;;;;;;;5036052;28;20026;-72
2021/11/12 00:22:10;;;;;;;80.00;31.08;;;;;;;;;;5047101;28;20025;-73
2021/11/12 00:24:36;;;;;;;93.75;33.30;;;;;;;;;;5038018;28;20351;-72
2021/11/12 00:27:04;;;;;;;83.78;33.17;;;;;;;;;;5023619;28;20025;-72
2021/11/12 00:29:35;;;;;;;102.90;34.53;;;;;;;;;;5027204;28;20029;-73
2021/11/12 00:34:46;;;;;;;89.35;34.35;;;;;;;;;;5046261;28;20029;-73
2021/11/12 00:37:24;;;;;;;97.43;33.25;;;;;;;;;;5042405;28;20116;-72
2021/11/12 00:40:09;;;;;;;91.78;32.97;;;;;;;;;;5035380;28;20021;-72
2021/11/12 00:42:41;;;;;;;81.65;32.55;;;;;;;;;;5022556;28;20613;-72
2021/11/12 00:45:08;;;;;;;82.22;30.80;;;;;;;;;;5040484;28;20537;-72
2021/11/12 00:55:37;;;;;;;90.60;32.58;;;;;;;;;;5037377;28;20057;-72
2021/11/12 00:58:03;;;;;;;92.70;34.45;;;;;;;;;;5029551;28;20021;-71
2021/11/12 01:00:29;;;;;;;93.95;34.05;;;;;;;;;;5036112;28;20082;-72
2021/11/12 01:02:56;;;;;;;83.60;34.45;;;;;;;;;;5041299;28;20031;-72
2021/11/12 01:05:22;;;;;;;88.25;34.60;;;;;;;;;;5043592;28;20414;-72
2021/11/12 01:07:49;;;;;;;94.18;31.80;;;;;;;;;;5033670;28;20108;-72
2021/11/12 01:10:15;;;;;;;98.70;35.53;;;;;;;;;;5047459;28;20041;-72
2021/11/12 01:12:42;;;;;;;102.72;36.80;;;;;;;;;;5036963;28;20040;-72
2021/11/12 01:15:10;;;;;;;94.63;34.58;;;;;;;;;;5040095;28;20073;-72
2021/11/12 01:17:36;;;;;;;89.13;33.67;;;;;;;;;;5027356;28;20033;-72
2021/11/12 01:20:03;;;;;;;102.78;35.25;;;;;;;;;;5034240;28;20117;-72
2021/11/12 01:22:30;;;;;;;102.70;35.17;;;;;;;;;;5044729;28;21032;-72
2021/11/12 01:24:56;;;;;;;89.75;34.05;;;;;;;;;;5022036;28;20025;-73
2021/11/12 01:27:22;;;;;;;98.93;34.67;;;;;;;;;;5020203;28;20065;-73
2021/11/12 01:29:48;;;;;;;93.80;34.20;;;;;;;;;;5029007;28;20049;-73
2021/11/12 01:32:21;;;;;;;105.15;34.92;;;;;;;;;;5015619;28;20025;-73
2021/11/12 01:34:49;;;;;;;99.47;36.20;;;;;;;;;;5045490;28;20017;-72
2021/11/12 01:37:19;;;;;;;95.05;35.90;;;;;;;;;;5027767;28;20033;-73
2021/11/12 01:39:50;;;;;;;94.28;35.08;;;;;;;;;;5021105;28;20022;-73
2021/11/12 01:42:17;;;;;;;101.55;35.10;;;;;;;;;;5032499;28;20021;-73
2021/11/12 01:44:48;;;;;;;99.82;35.05;;;;;;;;;;5041666;28;20104;-73
2021/11/12 01:47:20;;;;;;;95.07;34.75;;;;;;;;;;5042669;28;20017;-72
2021/11/12 01:49:49;;;;;;;90.18;35.78;;;;;;;;;;5032078;28;20036;-72
2021/11/12 01:52:23;;;;;;;94.80;36.60;;;;;;;;;;5019460;28;20025;-73
2021/11/12 01:59:48;;;;;;;78.00;31.40;;;;;;;;;;5049979;28;20044;-73
2021/11/12 02:02:14;;;;;;;81.72;32.05;;;;;;;;;;5036370;28;20039;-73
2021/11/12 02:04:40;;;;;;;90.25;33.78;;;;;;;;;;5047090;28;20057;-73
2021/11/12 02:07:06;;;;;;;111.20;35.47;;;;;;;;;;5041917;28;20082;-73
2021/11/12 02:09:32;;;;;;;106.53;37.17;;;;;;;;;;5039779;28;20037;-73
2021/11/12 02:12:07;;;;;;;119.03;40.17;;;;;;;;;;5031958;28;20021;-72
2021/11/12 02:14:34;;;;;;;132.23;39.65;;;;;;;;;;5021418;28;20397;-73
2021/11/12 02:17:04;;;;;;;113.45;38.05;;;;;;;;;;5044091;28;20385;-73
2021/11/12 02:19:31;;;;;;;102.18;38.40;;;;;;;;;;5047136;28;20021;-73
2021/11/12 02:22:06;;;;;;;119.03;40.78;;;;;;;;;;5018865;28;20033;-74
2021/11/12 02:24:34;;;;;;;121.90;40.17;;;;;;;;;;5047849;28;20025;-73
2021/11/12 02:27:01;;;;;;;92.47;36.33;;;;;;;;;;5024804;28;20047;-73
2021/11/12 02:29:29;;;;;;;98.10;37.90;;;;;;;;;;5044975;28;20033;-73
2021/11/12 02:31:55;;;;;;;99.07;36.92;;;;;;;;;;5049532;28;20024;-73
2021/11/12 02:34:21;;;;;;;85.07;32.65;;;;;;;;;;5036867;28;20126;-73
2021/11/12 02:36:47;;;;;;;85.93;34.97;;;;;;;;;;5045438;28;20026;-73
2021/11/12 02:39:14;;;;;;;91.35;35.03;;;;;;;;;;5044190;28;20029;-73
2021/11/12 02:41:41;;;;;;;80.55;34.15;;;;;;;;;;5037909;28;20509;-73
2021/11/12 02:44:08;;;;;;;87.85;34.70;;;;;;;;;;5048703;28;20021;-73
2021/11/12 02:46:34;;;;;;;85.60;35.63;;;;;;;;;;5020484;28;20028;-73
2021/11/12 02:49:00;;;;;;;85.22;34.10;;;;;;;;;;5043292;28;20032;-73
2021/11/12 02:51:29;;;;;;;92.63;35.03;;;;;;;;;;5014348;28;20029;-73
2021/11/12 02:53:56;;;;;;;84.30;33.67;;;;;;;;;;5044378;28;20025;-73
2021/11/12 02:56:30;;;;;;;87.20;35.20;;;;;;;;;;5019363;28;20367;-74
2021/11/12 02:59:02;;;;;;;89.35;33.78;;;;;;;;;;5025969;28;20029;-74
2021/11/12 03:01:29;;;;;;;93.93;34.20;;;;;;;;;;5028312;28;20028;-74
2021/11/12 03:03:56;;;;;;;94.97;35.90;;;;;;;;;;5035312;28;20495;-74
2021/11/12 03:06:23;;;;;;;90.00;34.83;;;;;;;;;;5048218;28;20029;-73
2021/11/12 03:08:49;;;;;;;94.72;36.72;;;;;;;;;;5021834;28;20021;-73
2021/11/12 03:11:16;;;;;;;91.93;34.60;;;;;;;;;;5040924;28;20170;-73
2021/11/12 03:13:44;;;;;;;93.45;34.88;;;;;;;;;;5029199;28;20024;-74
2021/11/12 03:16:11;;;;;;;89.68;35.50;;;;;;;;;;5035894;28;20029;-73
2021/11/12 03:18:37;;;;;;;85.38;34.10;;;;;;;;;;5046112;28;20148;-73
2021/11/12 03:21:03;;;;;;;89.00;34.22;;;;;;;;;;5024122;28;20120;-72
2021/11/12 03:23:35;;;;;;;94.93;36.42;;;;;;;;;;5038150;28;20022;-72
2021/11/12 03:47:06;;;;;;;75.57;30.25;;;;;;;;;;5035962;28;20512;-72
2021/11/12 04:06:30;;;;;;;71.00;30.13;;;;;;;;;;5035020;28;20072;-72
2021/11/12 04:30:37;;;;;;;;;;;;;;;;;;;;;
2021/11/12 04:50:08;;;;;;;64.47;28.38;;;;;;;;;;4954047;28;20031;-74
2021/11/12 05:44:27;;;;;;;44.00;22.30;;;;;;;;;;5022457;28;20602;-75
2021/11/12 05:55:08;;;;;;;38.83;21.17;;;;;;;;;;5053893;28;20040;-74
2021/11/12 05:57:35;;;;;;;42.40;21.10;;;;;;;;;;5053618;28;20017;-74
2021/11/12 06:00:01;;;;;;;47.22;23.08;;;;;;;;;;5053595;28;20167;-73
2021/11/12 06:02:27;;;;;;;42.78;21.52;;;;;;;;;;5052839;28;20021;-73
2021/11/12 06:04:53;;;;;;;43.05;21.75;;;;;;;;;;5053509;28;20017;-73
2021/11/12 06:07:19;;;;;;;42.72;21.65;;;;;;;;;;5033505;28;20174;-74
2021/11/12 06:09:46;;;;;;;38.08;20.70;;;;;;;;;;5053128;28;20029;-74
2021/11/12 06:12:12;;;;;;;39.50;20.90;;;;;;;;;;5052563;28;20112;-73
2021/11/12 06:14:38;;;;;;;43.30;20.60;;;;;;;;;;5035685;28;20021;-74
2021/11/12 06:17:04;;;;;;;36.80;19.85;;;;;;;;;;5053095;28;20021;-75
2021/11/12 06:19:30;;;;;;;37.45;20.55;;;;;;;;;;5052619;28;20367;-73
2021/11/12 06:21:56;;;;;;;46.28;21.55;;;;;;;;;;5051890;28;20071;-75
2021/11/12 06:24:22;;;;;;;40.63;20.27;;;;;;;;;;5034308;28;20013;-74
2021/11/12 06:26:48;;;;;;;45.42;19.92;;;;;;;;;;5052957;28;20037;-75
2021/11/12 06:29:14;;;;;;;42.00;21.35;;;;;;;;;;5052667;28;20021;-75
2021/11/12 06:31:40;;;;;;;43.95;21.27;;;;;;;;;;5035166;28;20029;-75
2021/11/12 06:34:07;;;;;;;43.53;20.15;;;;;;;;;;5052531;28;20029;-75
2021/11/12 06:36:33;;;;;;;41.13;20.67;;;;;;;;;;5053355;28;20029;-75
2021/11/12 06:39:00;;;;;;;37.53;20.02;;;;;;;;;;5052913;28;20020;-75
2021/11/12 06:44:23;;;;;;;38.15;18.58;;;;;;;;;;5051989;28;20380;-73
2021/11/12 06:52:16;;;;;;;38.55;18.45;;;;;;;;;;5047426;28;20070;-74
2021/11/12 06:54:44;;;;;;;37.38;18.15;;;;;;;;;;5052988;28;20519;-74
2021/11/12 06:57:10;;;;;;;36.63;18.98;;;;;;;;;;5034445;28;20506;-73
2021/11/12 06:59:36;;;;;;;42.58;20.23;;;;;;;;;;5052573;28;20033;-73
2021/11/12 07:02:02;;;;;;;34.33;17.02;;;;;;;;;;5049940;28;20159;-72
2021/11/12 07:04:28;;;;;;;40.58;17.90;;;;;;;;;;5033268;28;20021;-74
2021/11/12 07:06:54;;;;;;;33.35;18.52;;;;;;;;;;5052205;28;20028;-75
2021/11/12 07:09:20;;;;;;;36.58;18.85;;;;;;;;;;5051881;28;20502;-74
2021/11/12 07:11:46;;;;;;;36.75;17.55;;;;;;;;;;5033996;28;20067;-74
2021/11/12 07:14:13;;;;;;;35.53;18.05;;;;;;;;;;5052058;28;20036;-74
2021/11/12 07:16:39;;;;;;;35.83;16.23;;;;;;;;;;5034633;28;20021;-76
2021/11/12 07:19:05;;;;;;;30.40;17.27;;;;;;;;;;5052057;28;20025;-74
2021/11/12 07:21:31;;;;;;;30.17;16.35;;;;;;;;;;5052344;28;20017;-75
2021/11/12 07:23:57;;;;;;;30.45;17.10;;;;;;;;;;5018275;28;20033;-75
2021/11/12 07:26:24;;;;;;;32.80;14.80;;;;;;;;;;5011395;28;20379;-74
2021/11/12 07:28:51;;;;;;;31.92;16.35;;;;;;;;;;5036663;28;20037;-74
2021/11/12 07:31:18;;;;;;;33.85;16.13;;;;;;;;;;5026587;28;20041;-74
2021/11/12 07:33:46;;;;;;;26.50;14.45;;;;;;;;;;5029765;28;20017;-76
2021/11/12 07:36:23;;;;;;;28.42;14.98;;;;;;;;;;5037070;28;20155;-74
2021/11/12 07:38:52;;;;;;;33.10;16.38;;;;;;;;;;5051530;28;20021;-76
2021/11/12 07:48:55;;;;;;;27.45;15.93;;;;;;;;;;5043153;28;20411;-76
2021/11/12 07:51:21;;;;;;;28.52;14.90;;;;;;;;;;5024240;28;20029;-75
2021/11/12 07:53:47;;;;;;;27.80;14.73;;;;;;;;;;5030048;28;20119;-74
2021/11/12 07:56:14;;;;;;;28.42;14.90;;;;;;;;;;5052670;28;20067;-74
2021/11/12 07:58:40;;;;;;;26.80;13.90;;;;;;;;;;5050370;28;20021;-76
2021/11/12 08:01:06;;;;;;;26.92;15.32;;;;;;;;;;5041638;28;20039;-74
2021/11/12 08:03:32;;;;;;;25.55;13.80;;;;;;;;;;5050242;28;20496;-73
2021/11/12 08:06:00;;;;;;;22.60;13.77;;;;;;;;;;5050054;28;20056;-71
2021/11/12 08:08:29;;;;;;;26.35;14.45;;;;;;;;;;5050736;28;20020;-71
2021/11/12 08:11:02;;;;;;;25.63;13.38;;;;;;;;;;5050956;28;20023;-72
2021/11/12 08:13:36;;;;;;;;;;;;;;;;;;;;;
2021/11/12 08:21:57;;;;;;;70.10;33.38;;;;;;;;;;5051187;28;20478;-72
2021/11/12 08:24:08;;;;;;;52.33;23.27;;;;;;;;;;5039383;28;20510;-74
2021/11/12 08:26:55;;;;;;;25.95;13.77;;;;;;;;;;5051035;28;20108;-70
2021/11/12 08:29:45;;;;;;;80.65;34.95;;;;;;;;;;5050454;28;20471;-74
2021/11/12 08:37:21;;;;;;;23.65;12.90;;;;;;;;;;5050022;28;20068;-72
2021/11/12 08:42:17;;;;;;;24.42;13.02;;;;;;;;;;5029300;28;20064;-70
2021/11/12 08:44:48;;;;;;;;;;;;;;;;;;;;;
2021/11/12 08:47:19;;;;;;;27.40;14.65;;;;;;;;;;5035413;28;20037;-71
2021/11/12 08:49:45;;;;;;;26.60;14.32;;;;;;;;;;5015315;28;20032;-71
2021/11/12 08:52:14;;;;;;;24.00;14.38;;;;;;;;;;5032575;28;20032;-69
2021/11/12 08:54:43;;;;;;;23.00;12.80;;;;;;;;;;5014891;28;20348;-72
2021/11/12 08:57:11;;;;;;;28.40;12.90;;;;;;;;;;5015471;28;20028;-70
2021/11/12 08:59:40;;;;;;;31.65;14.18;;;;;;;;;;5033379;28;20101;-70
2021/11/12 09:02:08;;;;;;;26.95;13.77;;;;;;;;;;5032628;28;20527;-71
2021/11/12 09:04:34;;;;;;;25.00;12.95;;;;;;;;;;5016025;28;20022;-70
2021/11/12 09:07:00;;;;;;;25.45;13.50;;;;;;;;;;5034035;28;20056;-70
2021/11/12 09:09:27;;;;;;;27.70;14.95;;;;;;;;;;5034176;28;20021;-70
2021/11/12 09:11:54;;;;;;;28.98;14.02;;;;;;;;;;5016604;28;20037;-69
2021/11/12 09:14:22;;;;;;;24.05;13.55;;;;;;;;;;5033754;28;20037;-70
2021/11/12 09:16:49;;;;;;;24.52;12.98;;;;;;;;;;5034255;28;20445;-70
2021/11/12 09:19:15;;;;;;;23.95;13.57;;;;;;;;;;5034171;28;20029;-69
2021/11/12 09:21:44;;;;;;;24.75;13.50;;;;;;;;;;5034174;28;20490;-71
2021/11/12 09:24:11;;;;;;;27.05;14.05;;;;;;;;;;5033823;28;20044;-69
2021/11/12 09:26:37;;;;;;;22.60;12.88;;;;;;;;;;5034489;28;20022;-70
2021/11/12 09:29:07;;;;;;;25.85;13.68;;;;;;;;;;5034328;28;20391;-69
2021/11/12 09:31:33;;;;;;;22.80;13.05;;;;;;;;;;5034311;28;20410;-70
2021/11/12 09:34:00;;;;;;;21.85;11.82;;;;;;;;;;5004152;28;20503;-71
2021/11/12 09:36:27;;;;;;;22.00;13.13;;;;;;;;;;5014369;28;20045;-69
2021/11/12 09:38:53;;;;;;;21.67;13.13;;;;;;;;;;5021907;28;20028;-71
2021/11/12 09:41:19;;;;;;;22.23;12.38;;;;;;;;;;5034199;28;20026;-70
2021/11/12 09:43:47;;;;;;;20.17;11.88;;;;;;;;;;5015711;28;20036;-71
2021/11/12 09:46:14;;;;;;;19.48;11.57;;;;;;;;;;5034211;28;20106;-69
2021/11/12 09:48:40;;;;;;;21.10;11.52;;;;;;;;;;5033869;28;20045;-70
2021/11/12 09:51:07;;;;;;;20.55;10.68;;;;;;;;;;5016377;28;20021;-70
2021/11/12 09:53:33;;;;;;;19.00;11.32;;;;;;;;;;5033416;28;20021;-70
2021/11/12 09:56:00;;;;;;;20.10;12.32;;;;;;;;;;5032505;28;20060;-70
2021/11/12 09:58:26;;;;;;;21.50;12.18;;;;;;;;;;5034357;28;20530;-70
2021/11/12 10:00:57;;;;;;;29.88;12.07;;;;;;;;;;5015852;28;20065;-70
2021/11/12 10:03:30;;;;;;;22.17;11.20;;;;;;;;;;5033317;28;20460;-70
2021/11/12 10:05:56;;;;;;;19.42;11.40;;;;;;;;;;5033990;28;20022;-70
2021/11/12 10:08:29;;;;;;;21.55;12.15;;;;;;;;;;5055978;22;20055;-68
2021/11/12 10:10:58;;;;;;;29.80;11.90;;;;;;;;;;5035956;28;20466;-68
2021/11/12 10:13:30;;;;;;;31.98;13.10;;;;;;;;;;5052914;28;20042;-67
2021/11/12 10:16:24;;;;;;;20.02;12.88;;;;;;;;;;5053286;28;20100;-68
2021/11/12 10:19:10;;;;;;;25.00;11.82;;;;;;;;;;5035586;28;20490;-68
2021/11/12 10:21:56;;;;;;;22.35;12.68;;;;;;;;;;5035663;28;20025;-68
2021/11/12 10:24:22;;;;;;;34.58;16.25;;;;;;;;;;5052828;28;20031;-68
2021/11/12 10:26:52;;;;;;;19.63;11.25;;;;;;;;;;5052871;28;20143;-68
2021/11/12 10:29:21;;;;;;;17.17;10.25;;;;;;;;;;5053199;28;20394;-68
2021/11/12 10:31:51;;;;;;;18.13;10.15;;;;;;;;;;5053347;28;20029;-68
2021/11/12 10:34:19;;;;;;;19.17;10.57;;;;;;;;;;5038703;28;20044;-68
2021/11/12 10:36:46;;;;;;;23.13;11.02;;;;;;;;;;5015544;28;20434;-68
2021/11/12 10:39:11;;;;;;;35.47;14.48;;;;;;;;;;5044734;28;20039;-69
2021/11/12 10:41:37;;;;;;;26.73;13.05;;;;;;;;;;5054685;28;20550;-68
2021/11/12 10:44:12;;;;;;;17.95;10.05;;;;;;;;;;5051044;28;20382;-68
2021/11/12 10:46:38;;;;;;;16.65;9.60;;;;;;;;;;5053258;28;20029;-68
2021/11/12 10:49:23;;;;;;;13.50;8.98;;;;;;;;;;5035181;28;20462;-67
2021/11/12 10:51:50;;;;;;;17.65;9.38;;;;;;;;;;5053030;28;20107;-67
2021/11/12 10:54:28;;;;;;;13.55;8.43;;;;;;;;;;5052568;28;20305;-69
2021/11/12 10:56:54;;;;;;;15.10;9.77;;;;;;;;;;5035443;28;20025;-71
2021/11/12 10:59:20;;;;;;;17.75;9.00;;;;;;;;;;5053166;28;20367;-69
2021/11/12 11:01:48;;;;;;;16.48;9.00;;;;;;;;;;5052906;28;20026;-69
2021/11/12 11:04:18;;;;;;;16.50;9.27;;;;;;;;;;5034308;28;20021;-68
2021/11/12 11:06:44;;;;;;;15.38;9.25;;;;;;;;;;5052260;28;20074;-68
2021/11/12 11:09:10;;;;;;;16.17;9.23;;;;;;;;;;5052300;28;20036;-67
2021/11/12 11:11:39;;;;;;;16.50;10.63;;;;;;;;;;5052744;28;20029;-67
2021/11/12 11:14:05;;;;;;;14.70;8.95;;;;;;;;;;5033986;28;20486;-67
2021/11/12 11:16:35;;;;;;;18.20;10.05;;;;;;;;;;5052584;28;20056;-68
2021/11/12 11:19:01;;;;;;;14.38;8.63;;;;;;;;;;5053002;28;20086;-69
2021/11/12 11:21:28;;;;;;;16.63;9.82;;;;;;;;;;5052195;28;20491;-68
2021/11/12 11:23:59;;;;;;;20.30;10.18;;;;;;;;;;5033826;28;20025;-68
2021/11/12 11:26:40;;;;;;;16.77;10.10;;;;;;;;;;5052377;28;20045;-68
2021/11/12 11:29:07;;;;;;;19.75;10.20;;;;;;;;;;5052154;28;20039;-68
2021/11/12 11:31:34;;;;;;;18.75;9.73;;;;;;;;;;5052154;28;20029;-68
2021/11/12 11:34:01;;;;;;;19.52;10.32;;;;;;;;;;5039756;28;20033;-68
2021/11/12 11:36:29;;;;;;;16.77;10.32;;;;;;;;;;5032324;28;20026;-68
2021/11/12 11:38:56;;;;;;;13.65;8.80;;;;;;;;;;5022392;28;20025;-68
2021/11/12 11:41:23;;;;;;;22.58;10.93;;;;;;;;;;5034179;28;20483;-68
2021/11/12 11:43:49;;;;;;;16.83;9.15;;;;;;;;;;5051086;28;20056;-68
2021/11/12 11:46:28;;;;;;;17.52;9.57;;;;;;;;;;5051755;28;20025;-68
2021/11/12 11:48:57;;;;;;;17.70;9.40;;;;;;;;;;5051831;28;20032;-68
2021/11/12 11:51:28;;;;;;;17.45;10.07;;;;;;;;;;5051909;28;20033;-68
2021/11/12 11:53:54;;;;;;;16.02;10.63;;;;;;;;;;5051146;28;20037;-68
2021/11/12 11:56:23;;;;;;;17.50;9.73;;;;;;;;;;5051804;28;20039;-68
2021/11/12 11:58:54;;;;;;;24.75;13.32;;;;;;;;;;5051558;28;20112;-68
2021/11/12 12:01:20;;;;;;;31.17;12.55;;;;;;;;;;5051496;28;20032;-68
2021/11/12 12:03:47;;;;;;;15.98;9.90;;;;;;;;;;5051020;28;20025;-68
2021/11/12 12:06:20;;;;;;;16.70;9.50;;;;;;;;;;5052072;28;20029;-68
2021/11/12 12:08:50;;;;;;;16.48;9.82;;;;;;;;;;5033658;28;20490;-68
2021/11/12 12:11:25;;;;;;;15.70;9.23;;;;;;;;;;5051689;28;20074;-68
2021/11/12 12:14:10;;;;;;;18.15;9.60;;;;;;;;;;5050605;28;20040;-68
2021/11/12 12:16:38;;;;;;;12.80;8.18;;;;;;;;;;5051703;28;20486;-68
2021/11/12 12:19:06;;;;;;;17.15;9.30;;;;;;;;;;5032740;28;20025;-68
2021/11/12 12:21:51;;;;;;;16.58;9.98;;;;;;;;;;5051549;28;20042;-68
2021/11/12 13:21:56;;;;;;;15.57;9.80;;;;;;;;;;5050832;28;20033;-71
2021/11/12 13:24:30;;;;;;;18.40;10.82;;;;;;;;;;5050227;28;20075;-71
2021/11/12 13:26:57;;;;;;;17.58;11.00;;;;;;;;;;5049325;28;20040;-70
2021/11/12 13:29:23;;;;;;;21.15;10.98;;;;;;;;;;5050885;28;20047;-70
2021/11/12 13:31:58;;;;;;;21.17;10.98;;;;;;;;;;5054159;28;20503;-70
2021/11/12 13:34:24;;;;;;;17.58;10.73;;;;;;;;;;5053578;28;20021;-70
2021/11/12 13:36:51;;;;;;;20.08;11.57;;;;;;;;;;5054165;28;20047;-71
2021/11/12 13:39:18;;;;;;;20.10;11.52;;;;;;;;;;5043039;28;20522;-71
2021/11/12 13:41:46;;;;;;;21.95;11.73;;;;;;;;;;5034218;28;20436;-70
2021/11/12 13:44:23;;;;;;;18.52;12.10;;;;;;;;;;5033297;28;20026;-69
2021/11/12 13:46:49;;;;;;;18.27;10.43;;;;;;;;;;5034189;28;20018;-71
2021/11/12 13:49:34;;;;;;;19.73;11.75;;;;;;;;;;5033963;28;20573;-70
2021/11/12 13:52:05;;;;;;;21.80;11.02;;;;;;;;;;5032240;28;20037;-70
2021/11/12 13:54:33;;;;;;;21.25;11.98;;;;;;;;;;5032179;28;20029;-71
2021/11/12 13:57:07;;;;;;;20.10;11.77;;;;;;;;;;5033872;28;20032;-70
2021/11/12 13:59:33;;;;;;;20.70;12.15;;;;;;;;;;5031833;28;20124;-69
2021/11/12 14:02:01;;;;;;;18.65;11.75;;;;;;;;;;5033388;28;20026;-70
2021/11/12 14:04:29;;;;;;;19.42;11.30;;;;;;;;;;5033851;28;20390;-70
2021/11/12 14:06:56;;;;;;;32.63;12.68;;;;;;;;;;5033750;28;20026;-70
2021/11/12 14:09:24;;;;;;;20.90;11.98;;;;;;;;;;5033884;28;20025;-70
2021/11/12 14:12:04;;;;;;;22.33;12.25;;;;;;;;;;5033598;28;20025;-70
2021/11/12 14:14:31;;;;;;;24.30;12.30;;;;;;;;;;5032409;28;20462;-69
2021/11/12 14:17:03;;;;;;;20.55;12.23;;;;;;;;;;5032249;28;20490;-71
2021/11/12 14:19:43;;;;;;;21.50;12.07;;;;;;;;;;5033455;28;20487;-70
2021/11/12 14:22:28;;;;;;;24.35;13.27;;;;;;;;;;5031191;28;20025;-70
2021/11/12 14:25:08;;;;;;;21.60;12.88;;;;;;;;;;5033396;28;20101;-70
2021/11/12 14:27:43;;;;;;;23.75;13.30;;;;;;;;;;5033317;28;20447;-71
2021/11/12 14:45:58;;;;;;;30.02;16.83;;;;;;;;;;5053026;28;20021;-70
2021/11/12 14:48:35;;;;;;;26.50;15.10;;;;;;;;;;5052852;28;20091;-70
2021/11/12 14:51:17;;;;;;;28.90;16.40;;;;;;;;;;5051518;28;20029;-70
2021/11/12 14:53:54;;;;;;;29.90;16.02;;;;;;;;;;5051998;28;20017;-71
2021/11/12 14:56:28;;;;;;;31.92;17.10;;;;;;;;;;5052728;28;20436;-70
2021/11/12 14:59:05;;;;;;;31.17;16.73;;;;;;;;;;5052789;28;20090;-70
2021/11/12 15:01:32;;;;;;;34.05;17.83;;;;;;;;;;5052442;28;20071;-70
2021/11/12 15:03:58;;;;;;;33.97;19.00;;;;;;;;;;5051549;28;20017;-69
2021/11/12 15:06:26;;;;;;;33.50;18.55;;;;;;;;;;5052157;28;20033;-70
2021/11/12 15:08:55;;;;;;;40.55;20.73;;;;;;;;;;5052283;28;20018;-70
2021/11/12 15:11:24;;;;;;;39.83;19.85;;;;;;;;;;5050939;28;20017;-70
2021/11/12 15:13:52;;;;;;;37.28;20.33;;;;;;;;;;5051439;28;20100;-70
2021/11/12 15:16:21;;;;;;;;;;;;;;;;;;;;;
2021/11/12 15:18:44;;;;;;;38.67;20.70;;;;;;;;;;5051920;28;20176;-70
2021/11/12 15:21:57;;;;;;;41.10;22.17;;;;;;;;;;5050669;28;20024;-70
2021/11/12 15:29:39;;;;;;;45.22;22.27;;;;;;;;;;5052079;28;20090;-71
2021/11/12 15:32:39;;;;;;;45.35;22.20;;;;;;;;;;5051551;28;20021;-70
2021/11/12 15:35:04;;;;;;;50.13;24.17;;;;;;;;;;5049073;28;20509;-70
2021/11/12 15:40:32;;;;;;;50.88;24.80;;;;;;;;;;5043100;28;20090;-69
2021/11/12 15:47:55;;;;;;;49.53;26.25;;;;;;;;;;5051796;28;20032;-70
2021/11/12 15:53:16;;;;;;;;;;;;;;;;;;;;;
2021/11/12 15:58:23;;;;;;;57.10;27.40;;;;;;;;;;5051523;28;20033;-70
2021/11/12 16:01:01;;;;;;;59.40;27.38;;;;;;;;;;5051327;28;20013;-70
2021/11/12 16:14:07;;;;;;;68.28;30.48;;;;;;;;;;5028862;28;20036;-70
2021/11/12 16:24:45;;;;;;;80.53;33.60;;;;;;;;;;5030926;28;20030;-70
2021/11/12 16:27:11;;;;;;;74.75;32.45;;;;;;;;;;5031285;28;20021;-70
2021/11/12 16:30:12;;;;;;;73.22;33.58;;;;;;;;;;5046697;28;20032;-70
2021/11/12 16:32:39;;;;;;;77.65;34.00;;;;;;;;;;5034659;28;20040;-70
2021/11/12 16:35:06;;;;;;;79.32;34.22;;;;;;;;;;5035869;28;20021;-70
2021/11/12 16:37:32;;;;;;;79.55;34.88;;;;;;;;;;5050986;28;20029;-71
2021/11/12 16:45:44;;;;;;;;;;;;;;;;;;;;;
2021/11/12 16:48:26;;;;;;;88.82;39.00;;;;;;;;;;5045270;28;20030;-70
2021/11/12 17:04:07;;;;;;;92.47;37.75;;;;;;;;;;5030201;28;20422;-70
2021/11/12 17:14:52;;;;;;;88.50;38.22;;;;;;;;;;5034728;28;20036;-70
2021/11/12 17:18:04;;;;;;;90.68;38.05;;;;;;;;;;5034302;28;20021;-70
2021/11/12 17:20:19;;;;;;;92.70;37.25;;;;;;;;;;5026341;28;20091;-71
2021/11/12 17:24:06;;;;;;;92.60;39.38;;;;;;;;;;5032525;28;20037;-69
2021/11/12 17:47:50;;;;;;;97.45;40.22;;;;;;;;;;5040536;28;20476;-71
2021/11/12 18:04:12;;;;;;;90.55;38.63;;;;;;;;;;5011439;28;20029;-73
2021/11/12 18:06:48;;;;;;;97.13;37.70;;;;;;;;;;5037592;28;20029;-72
2021/11/12 18:09:41;;;;;;;102.20;39.95;;;;;;;;;;5047287;28;20410;-71
2021/11/12 18:20:46;;;;;;;98.30;39.55;;;;;;;;;;5036485;28;20055;-73
2021/11/12 21:46:49;;;;;;;115.13;44.33;;;;;;;;;;5089288;28;20055;-70
2021/11/12 21:49:15;;;;;;;112.90;44.85;;;;;;;;;;5095853;28;20046;-70
2021/11/12 21:51:43;;;;;;;120.25;44.33;;;;;;;;;;5096578;28;20028;-69
2021/11/12 21:54:10;;;;;;;120.82;46.63;;;;;;;;;;5080801;28;20024;-69
2021/11/12 21:56:36;;;;;;;107.40;43.05;;;;;;;;;;5095551;28;20031;-69
2021/11/12 21:59:03;;;;;;;110.20;44.92;;;;;;;;;;5093516;28;20153;-70
2021/11/12 22:01:29;;;;;;;109.20;42.42;;;;;;;;;;5092736;28;20098;-74
2021/11/12 22:03:55;;;;;;;110.43;44.45;;;;;;;;;;5092915;28;20138;-68
2021/11/12 22:06:21;;;;;;;97.95;40.45;;;;;;;;;;5094001;28;20086;-68
2021/11/12 22:08:48;;;;;;;103.85;40.85;;;;;;;;;;5092901;28;20021;-68
2021/11/12 22:11:14;;;;;;;102.63;41.20;;;;;;;;;;5092959;28;20094;-68
2021/11/12 22:13:41;;;;;;;102.72;40.00;;;;;;;;;;5092797;28;20028;-68
2021/11/12 22:16:08;;;;;;;93.93;38.33;;;;;;;;;;5077199;28;20370;-68
2021/11/12 22:18:35;;;;;;;97.40;38.00;;;;;;;;;;5094145;28;20393;-68
2021/11/12 22:21:01;;;;;;;93.60;39.13;;;;;;;;;;5092995;28;20474;-68
2021/11/12 22:23:27;;;;;;;92.75;39.70;;;;;;;;;;5092902;28;20089;-68
2021/11/12 22:25:54;;;;;;;86.65;37.03;;;;;;;;;;5093680;28;20512;-68
2021/11/12 22:28:20;;;;;;;91.38;36.70;;;;;;;;;;5093287;28;20541;-68
2021/11/12 22:30:46;;;;;;;90.90;37.92;;;;;;;;;;5090820;28;20070;-68
2021/11/12 22:33:12;;;;;;;88.45;36.15;;;;;;;;;;5089240;28;20057;-68
2021/11/12 22:35:38;;;;;;;84.50;36.03;;;;;;;;;;5091857;28;20032;-68
2021/11/12 22:38:05;;;;;;;83.82;35.95;;;;;;;;;;5086716;28;20028;-68
2021/11/12 22:40:31;;;;;;;76.65;35.53;;;;;;;;;;5091121;28;20032;-68
2021/11/12 22:42:57;;;;;;;86.53;36.30;;;;;;;;;;5089089;28;20056;-68
2021/11/12 22:45:23;;;;;;;78.68;35.53;;;;;;;;;;5085306;28;20986;-68
2021/11/12 22:47:49;;;;;;;80.78;34.17;;;;;;;;;;5091055;28;20028;-68
2021/11/12 22:50:15;;;;;;;80.57;35.47;;;;;;;;;;5091318;28;20052;-67
2021/11/12 22:52:41;;;;;;;75.55;33.20;;;;;;;;;;5091933;28;20027;-68
2021/11/12 22:55:08;;;;;;;76.55;36.13;;;;;;;;;;5093227;28;20489;-67
2021/11/12 22:57:34;;;;;;;80.30;34.95;;;;;;;;;;5093137;28;20078;-67
2021/11/12 23:00:00;;;;;;;71.80;33.40;;;;;;;;;;5092878;28;20039;-68
2021/11/12 23:02:26;;;;;;;74.75;33.20;;;;;;;;;;5091371;28;20020;-68
2021/11/12 23:04:52;;;;;;;73.78;33.15;;;;;;;;;;5092906;28;20567;-67
2021/11/12 23:07:18;;;;;;;73.97;31.75;;;;;;;;;;5092977;28;20028;-67
2021/11/12 23:09:44;;;;;;;76.43;33.53;;;;;;;;;;5092746;28;20023;-67
2021/11/12 23:12:12;;;;;;;73.78;33.30;;;;;;;;;;5091745;28;20021;-68
2021/11/12 23:14:38;;;;;;;76.25;35.08;;;;;;;;;;5092785;28;20033;-67
2021/11/12 23:17:04;;;;;;;74.38;33.78;;;;;;;;;;5092924;28;20497;-68
2021/11/12 23:19:30;;;;;;;76.80;32.90;;;;;;;;;;5092813;28;20028;-67
2021/11/12 23:21:56;;;;;;;72.18;32.42;;;;;;;;;;5092176;28;20028;-67
2021/11/12 23:24:22;;;;;;;77.03;33.03;;;;;;;;;;5092558;28;20542;-67
2021/11/12 23:26:48;;;;;;;76.00;33.03;;;;;;;;;;5091328;28;20051;-68
2021/11/12 23:29:14;;;;;;;76.43;32.00;;;;;;;;;;5092636;28;20103;-67
2021/11/12 23:31:40;;;;;;;81.20;34.47;;;;;;;;;;5092376;28;20055;-67
2021/11/12 23:34:07;;;;;;;74.60;32.75;;;;;;;;;;5091414;28;20546;-67
2021/11/12 23:36:33;;;;;;;77.28;34.85;;;;;;;;;;5092417;28;20091;-67
2021/11/12 23:38:59;;;;;;;73.78;31.98;;;;;;;;;;5092337;28;20020;-67
2021/11/12 23:41:25;;;;;;;74.88;32.95;;;;;;;;;;5092148;28;20029;-68
2021/11/12 23:43:52;;;;;;;74.25;33.13;;;;;;;;;;5091541;28;20016;-68
2021/11/12 23:46:17;;;;;;;72.95;33.63;;;;;;;;;;5090708;28;20031;-68
2021/11/12 23:48:43;;;;;;;76.22;35.28;;;;;;;;;;5080612;28;20028;-68
2021/11/12 23:51:09;;;;;;;76.80;34.95;;;;;;;;;;5092248;28;20044;-68
2021/11/12 23:53:36;;;;;;;79.35;34.67;;;;;;;;;;5091090;28;20058;-68
2021/11/12 23:56:02;;;;;;;77.85;33.17;;;;;;;;;;5091493;28;20036;-68
2021/11/12 23:58:28;;;;;;;78.45;35.35;;;;;;;;;;5091803;28;20024;-68
